Indiahoma, Oklahoma
Current Conditions -  °F | °C
As of 11:53 AM on Tuesday 21 Oct 2014 (Local Time) from KLAW Reporting Station
Clear Clear  
Wind Chill: 76°   Ceiling: Unl
Heat Index: 76°   Visibility: 10mi
Dew Point: 58°   Wind: 5mph
Humidity: 54%   Direction: NA
Pressure: 30.1"   Gusts: NA
Location:  34.62°N, 98.75°W
Report Text: KLAW 211653Z VRB04KT 10SM CLR 24/14 A3010 RMK AO2 SLP185 T02440144
Loading
Personal Weather Stations






























Interactive Weather Map
Tropical Storm Tracking
New forecast layout! Learn more

10-Day Weather Forecast

Advertisements
Track Severe Weather on mobile